Copper Creek, Canada
Current Conditions -  °F | °C
As of 3:04 AM on Friday 19 Dec 2014 (Local Time) from CYKA Reporting Station
Light Rain Light Rain  
Wind Chill: 32°   Ceiling: 6800
Heat Index: 39°   Visibility: 30mi
Dew Point: 34°   Wind: 10mph
Humidity: 81%   Direction: 100°E
Pressure: 29.76"   Gusts: NA
Location:  50.8°N, 120.76°W
Report Text: CYKA 191104Z 10009KT 30SM -RA SCT035 OVC068 04/01 A2976 RMK SC4AC4 SLP090
Loading
Personal Weather Stations






























Interactive Weather Map New forecast layout! Learn more

10-Day Weather Forecast

Advertisements
Track Severe Weather on mobile